createdAt,value
2022-08-10T00:01:39.254Z,28.80
2022-08-10T00:04:08.486Z,28.80
2022-08-10T00:06:36.933Z,28.80
2022-08-10T00:09:05.006Z,28.80
2022-08-10T00:11:32.742Z,28.80
2022-08-10T00:14:00.687Z,28.80
2022-08-10T00:16:28.573Z,28.80
2022-08-10T00:18:56.337Z,28.80
2022-08-10T00:21:27.064Z,28.80
2022-08-10T00:23:55.107Z,28.70
2022-08-10T00:26:22.846Z,28.80
2022-08-10T00:28:50.598Z,28.80
2022-08-10T00:31:18.360Z,28.70
2022-08-10T00:33:46.122Z,28.80
2022-08-10T00:36:14.016Z,28.70
2022-08-10T00:38:43.128Z,28.80
2022-08-10T00:41:10.973Z,28.80
2022-08-10T00:43:38.695Z,28.70
2022-08-10T00:46:06.664Z,28.80
2022-08-10T00:48:34.456Z,28.80
2022-08-10T00:51:02.364Z,28.80
2022-08-10T00:53:30.817Z,28.80
2022-08-10T00:57:14.669Z,28.70
2022-08-10T00:58:48.338Z,28.70
2022-08-10T01:02:10.098Z,28.80
2022-08-10T01:04:40.328Z,28.70
2022-08-10T01:07:07.254Z,28.80
2022-08-10T01:09:44.295Z,28.70
2022-08-10T01:12:38.562Z,28.70
2022-08-10T01:15:15.224Z,28.70
2022-08-10T01:17:52.927Z,28.70
2022-08-10T01:20:30.699Z,28.70
2022-08-10T01:23:35.514Z,28.80
2022-08-10T01:26:31.283Z,28.70
2022-08-10T01:29:17.099Z,28.70
2022-08-10T01:31:51.669Z,28.80
2022-08-10T01:34:24.650Z,28.70
2022-08-10T01:36:56.583Z,28.70
2022-08-10T01:39:28.252Z,28.70
2022-08-10T01:41:57.831Z,28.80
2022-08-10T01:44:30.242Z,28.70
2022-08-10T01:47:20.345Z,28.70
2022-08-10T01:49:54.306Z,28.70
2022-08-10T01:52:24.624Z,28.80
2022-08-10T01:54:54.194Z,28.70
2022-08-10T01:57:26.352Z,28.70
2022-08-10T02:00:02.315Z,28.70
2022-08-10T02:02:36.507Z,28.70
2022-08-10T02:05:07.082Z,28.70
2022-08-10T02:07:37.717Z,28.70
2022-08-10T02:10:10.450Z,28.70
2022-08-10T02:12:39.176Z,28.70
2022-08-10T02:15:11.447Z,28.70
2022-08-10T02:18:00.637Z,28.70
2022-08-10T02:20:34.641Z,28.70
2022-08-10T02:23:08.375Z,28.70
2022-08-10T02:25:41.034Z,28.70
2022-08-10T02:28:27.405Z,28.70
2022-08-10T02:31:02.302Z,28.70
2022-08-10T02:33:32.591Z,28.70
2022-08-10T02:36:07.101Z,28.70
2022-08-10T02:38:58.026Z,28.70
2022-08-10T02:45:10.989Z,28.70
2022-08-10T02:45:20.484Z,28.70
2022-08-10T02:47:22.534Z,28.70
2022-08-10T02:49:58.244Z,28.70
2022-08-10T02:52:35.289Z,28.70
2022-08-10T02:55:17.872Z,28.70
2022-08-10T02:58:12.679Z,28.70
2022-08-10T03:00:44.485Z,28.70
2022-08-10T03:03:16.517Z,28.70
2022-08-10T03:05:48.522Z,28.70
2022-08-10T03:08:20.282Z,28.70
2022-08-10T03:10:50.172Z,28.70
2022-08-10T03:13:20.039Z,28.70
2022-08-10T03:15:48.934Z,28.70
2022-08-10T03:18:19.040Z,28.70
2022-08-10T03:20:49.701Z,28.70
2022-08-10T03:23:19.914Z,28.70
2022-08-10T03:25:52.760Z,28.70
2022-08-10T03:28:23.180Z,28.70
2022-08-10T03:30:51.881Z,28.70
2022-08-10T03:33:21.860Z,28.70
2022-08-10T03:36:41.526Z,28.70
2022-08-10T03:38:40.316Z,28.70
2022-08-10T03:41:15.895Z,28.70
2022-08-10T03:43:46.204Z,28.70
2022-08-10T03:46:14.773Z,28.70
2022-08-10T03:48:48.776Z,28.70
2022-08-10T03:51:20.850Z,28.70
2022-08-10T03:54:03.041Z,28.70
2022-08-10T03:56:35.930Z,28.70
2022-08-10T03:59:03.957Z,28.70
2022-08-10T04:02:45.056Z,28.70
2022-08-10T04:04:24.539Z,28.70
2022-08-10T04:06:56.096Z,28.70
2022-08-10T04:09:24.889Z,28.70
2022-08-10T04:12:11.369Z,28.70
2022-08-10T04:14:49.943Z,28.70
2022-08-10T04:18:04.712Z,28.70
2022-08-10T04:20:11.461Z,28.70
2022-08-10T04:22:42.315Z,28.70
2022-08-10T04:25:12.943Z,28.70
2022-08-10T04:27:40.972Z,28.70
2022-08-10T04:30:09.784Z,28.70
2022-08-10T04:32:38.401Z,28.70
2022-08-10T04:35:11.468Z,28.70
2022-08-10T04:37:47.169Z,28.70
2022-08-10T04:40:29.741Z,28.70
2022-08-10T04:43:04.463Z,28.70
2022-08-10T04:45:49.682Z,28.70
2022-08-10T04:48:42.967Z,28.70
2022-08-10T04:51:10.970Z,28.70
2022-08-10T04:54:02.774Z,28.70
2022-08-10T04:56:33.763Z,28.70
2022-08-10T04:59:01.554Z,28.70
2022-08-10T05:02:22.568Z,28.70
2022-08-10T05:04:36.915Z,28.70
2022-08-10T05:07:05.642Z,28.70
2022-08-10T05:10:03.165Z,28.70
2022-08-10T05:12:22.782Z,28.70
2022-08-10T05:14:51.923Z,28.70
2022-08-10T05:17:19.818Z,28.60
2022-08-10T05:20:04.163Z,28.60
2022-08-10T05:22:34.957Z,28.60
2022-08-10T05:25:05.099Z,28.60
2022-08-10T05:27:33.494Z,28.60
2022-08-10T05:30:03.335Z,28.50
2022-08-10T05:32:32.325Z,28.50
2022-08-10T05:35:00.181Z,28.40
2022-08-10T05:38:09.114Z,28.30
2022-08-10T05:40:21.285Z,28.30
2022-08-10T05:42:49.003Z,28.30
2022-08-10T05:45:22.084Z,28.20
2022-08-10T05:48:57.922Z,28.20
2022-08-10T05:50:37.948Z,28.20
2022-08-10T05:53:59.982Z,28.20
2022-08-10T05:55:55.214Z,28.20
2022-08-10T05:58:23.278Z,28.20
2022-08-10T06:00:54.432Z,28.10
2022-08-10T06:03:30.611Z,28.10
2022-08-10T06:06:01.693Z,28.10
2022-08-10T06:08:33.514Z,28.10
2022-08-10T06:12:27.946Z,28.10
2022-08-10T06:14:16.726Z,28.10
2022-08-10T06:16:46.471Z,28.10
2022-08-10T06:19:15.257Z,28.10
2022-08-10T06:22:00.986Z,28.10
2022-08-10T06:24:31.303Z,28.00
2022-08-10T06:27:00.723Z,28.00
2022-08-10T06:29:32.959Z,28.00
2022-08-10T06:32:02.227Z,28.00
2022-08-10T06:34:33.697Z,28.00
2022-08-10T06:37:04.650Z,28.00
2022-08-10T06:39:35.364Z,28.00
2022-08-10T06:42:16.738Z,28.00
2022-08-10T06:44:58.943Z,28.00
2022-08-10T06:47:32.037Z,28.10
2022-08-10T06:50:04.956Z,28.00
2022-08-10T06:52:37.971Z,28.00
2022-08-10T06:55:09.133Z,28.00
2022-08-10T06:57:39.771Z,28.10
2022-08-10T07:00:09.517Z,28.00
2022-08-10T07:02:43.825Z,28.10
2022-08-10T07:05:17.925Z,28.10
2022-08-10T07:07:47.827Z,28.10
2022-08-10T07:10:19.371Z,28.10
2022-08-10T07:12:49.932Z,28.10
2022-08-10T07:15:19.066Z,28.10
2022-08-10T07:17:47.745Z,28.10
2022-08-10T07:20:19.147Z,28.10
2022-08-10T07:23:54.830Z,28.10
2022-08-10T07:25:38.332Z,28.10
2022-08-10T07:28:08.285Z,28.10
2022-08-10T07:30:39.177Z,28.20
2022-08-10T07:33:08.138Z,28.20
2022-08-10T07:35:42.280Z,28.20
2022-08-10T07:38:16.821Z,28.20
2022-08-10T07:40:46.227Z,28.20
2022-08-10T07:43:17.007Z,28.20
2022-08-10T07:45:47.059Z,28.20
2022-08-10T07:48:17.974Z,28.20
2022-08-10T07:50:47.195Z,28.20
2022-08-10T07:53:20.826Z,28.30
2022-08-10T07:56:04.252Z,28.30
2022-08-10T07:58:51.537Z,28.30
2022-08-10T08:01:23.770Z,28.30
2022-08-10T08:04:05.991Z,28.20
2022-08-10T08:06:41.844Z,28.20
2022-08-10T08:09:10.634Z,28.30
2022-08-10T08:11:40.195Z,28.30
2022-08-10T08:14:10.471Z,28.20
2022-08-10T08:16:42.456Z,28.30
2022-08-10T08:19:26.579Z,28.20
2022-08-10T08:24:08.637Z,28.20
2022-08-10T08:24:45.126Z,28.20
2022-08-10T08:27:16.596Z,28.20
2022-08-10T08:29:47.708Z,28.30
2022-08-10T08:32:19.377Z,28.20
2022-08-10T08:34:48.427Z,28.30
2022-08-10T08:38:26.467Z,28.20
2022-08-10T08:40:09.682Z,28.30
2022-08-10T08:43:08.792Z,28.30
2022-08-10T08:46:01.839Z,28.30
2022-08-10T08:48:56.179Z,28.30
2022-08-10T08:52:09.870Z,28.30
2022-08-10T08:54:43.633Z,28.30
2022-08-10T08:57:49.425Z,28.30
2022-08-10T09:00:17.237Z,28.30
2022-08-10T09:03:14.310Z,28.30
2022-08-10T09:05:58.758Z,28.30
2022-08-10T09:08:57.605Z,28.30
2022-08-10T09:11:39.263Z,28.30
2022-08-10T09:14:17.919Z,28.30
2022-08-10T09:16:58.658Z,28.40
2022-08-10T09:19:35.334Z,28.40
2022-08-10T09:22:18.787Z,28.40
2022-08-10T09:24:52.826Z,28.40
2022-08-10T09:27:22.606Z,28.40
2022-08-10T09:29:55.649Z,28.40
2022-08-10T09:36:15.645Z,28.40
2022-08-10T09:36:22.444Z,28.40
2022-08-10T09:38:34.432Z,28.40
2022-08-10T09:41:13.872Z,28.40
2022-08-10T09:43:48.005Z,28.50
2022-08-10T09:46:27.516Z,28.50
2022-08-10T09:49:04.031Z,28.50
2022-08-10T09:51:48.201Z,28.50
2022-08-10T09:54:31.009Z,28.50
2022-08-10T09:57:44.231Z,28.50
2022-08-10T10:00:09.014Z,28.60
2022-08-10T10:02:44.042Z,28.60
2022-08-10T10:05:26.025Z,28.60
2022-08-10T10:08:04.418Z,28.60
2022-08-10T10:10:47.431Z,28.60
2022-08-10T10:14:02.168Z,28.70
2022-08-10T10:16:28.826Z,28.70
2022-08-10T10:19:09.617Z,28.70
2022-08-10T10:21:54.258Z,28.70
2022-08-10T10:24:34.304Z,28.80
2022-08-10T10:27:15.969Z,28.80
2022-08-10T10:29:56.414Z,28.80
2022-08-10T10:32:37.636Z,28.80
2022-08-10T10:35:15.961Z,28.80
2022-08-10T10:38:01.980Z,28.80
2022-08-10T10:40:38.478Z,28.80
2022-08-10T10:43:12.162Z,28.80
2022-08-10T10:45:51.841Z,28.80
2022-08-10T10:48:29.574Z,28.80
2022-08-10T10:51:10.713Z,28.80
2022-08-10T10:53:45.207Z,28.90
2022-08-10T10:56:21.361Z,28.90
2022-08-10T10:58:59.812Z,28.90
2022-08-10T11:01:44.969Z,28.90
2022-08-10T11:04:24.048Z,28.90
2022-08-10T11:07:02.890Z,28.90
2022-08-10T11:10:04.505Z,28.90
2022-08-10T11:12:43.553Z,28.90
2022-08-10T11:15:24.951Z,29.00
2022-08-10T11:17:58.987Z,29.00
2022-08-10T11:20:33.228Z,29.00
2022-08-10T11:23:13.049Z,29.00
2022-08-10T11:25:45.548Z,29.00
2022-08-10T11:28:20.937Z,29.00
2022-08-10T11:30:57.875Z,29.00
2022-08-10T11:33:57.102Z,29.00
2022-08-10T11:36:32.154Z,29.00
2022-08-10T11:39:16.866Z,29.00
2022-08-10T11:42:07.692Z,29.00
2022-08-10T11:44:49.481Z,29.00
2022-08-10T11:47:20.516Z,29.00
2022-08-10T11:49:53.998Z,29.00
2022-08-10T11:52:30.189Z,29.00
2022-08-10T11:55:06.096Z,29.00
2022-08-10T11:57:54.794Z,29.00
2022-08-10T12:00:24.013Z,29.10
2022-08-10T12:02:56.216Z,29.10
2022-08-10T12:05:54.364Z,29.10
2022-08-10T12:10:04.378Z,29.10
2022-08-10T12:11:07.717Z,29.10
2022-08-10T12:13:58.470Z,29.10
2022-08-10T12:16:34.702Z,29.10
2022-08-10T12:19:06.227Z,29.10
2022-08-10T12:21:43.114Z,29.10
2022-08-10T12:24:17.186Z,29.10
2022-08-10T12:26:50.786Z,29.10
2022-08-10T12:29:27.362Z,29.10
2022-08-10T12:32:04.641Z,29.10
2022-08-10T12:34:40.597Z,29.10
2022-08-10T12:37:18.225Z,29.10
2022-08-10T12:40:17.538Z,29.20
2022-08-10T12:43:02.495Z,29.20
2022-08-10T12:45:44.539Z,29.20
2022-08-10T12:48:22.093Z,29.20
2022-08-10T12:50:56.738Z,29.10
2022-08-10T12:53:36.180Z,29.20
2022-08-10T12:56:04.353Z,29.10
2022-08-10T12:59:00.482Z,29.20
2022-08-10T13:01:25.068Z,29.10
2022-08-10T13:04:23.518Z,29.10
2022-08-10T13:06:49.674Z,29.10
2022-08-10T13:09:21.735Z,29.10
2022-08-10T13:12:35.886Z,29.10
2022-08-10T13:15:43.255Z,29.10
2022-08-10T13:17:55.042Z,29.10
2022-08-10T13:20:29.223Z,29.10
2022-08-10T13:23:00.648Z,29.10
2022-08-10T13:25:32.745Z,29.10
2022-08-10T13:28:36.603Z,29.10
2022-08-10T13:30:51.970Z,29.10
2022-08-10T13:34:41.246Z,29.10
2022-08-10T13:36:16.321Z,29.10
2022-08-10T13:38:48.555Z,29.10
2022-08-10T13:41:17.946Z,29.10
2022-08-10T13:43:52.246Z,29.10
2022-08-10T13:46:23.007Z,29.10
2022-08-10T13:48:53.215Z,29.10
2022-08-10T13:51:53.957Z,29.10
2022-08-10T13:54:17.656Z,29.10
2022-08-10T13:56:48.381Z,29.10
2022-08-10T13:59:17.133Z,29.10
2022-08-10T14:01:49.368Z,29.10
2022-08-10T14:04:19.159Z,29.10
2022-08-10T14:06:54.250Z,29.10
2022-08-10T14:09:28.052Z,29.10
2022-08-10T14:11:57.189Z,29.10
2022-08-10T14:14:27.761Z,29.10
2022-08-10T14:16:58.203Z,29.10
2022-08-10T14:19:30.494Z,29.10
2022-08-10T14:21:59.689Z,29.10
2022-08-10T14:24:29.324Z,29.10
2022-08-10T14:27:04.857Z,29.10
2022-08-10T14:29:39.512Z,29.10
2022-08-10T14:32:09.967Z,29.10
2022-08-10T14:36:14.992Z,29.10
2022-08-10T14:37:37.852Z,29.10
2022-08-10T14:40:10.949Z,29.10
2022-08-10T14:42:46.625Z,29.10
2022-08-10T14:45:21.480Z,29.10
2022-08-10T14:47:55.188Z,29.10
2022-08-10T14:50:33.530Z,29.10
2022-08-10T14:53:09.407Z,29.10
2022-08-10T14:55:59.093Z,29.10
2022-08-10T14:58:30.190Z,29.10
2022-08-10T15:00:59.874Z,29.10
2022-08-10T15:03:58.826Z,29.10
2022-08-10T15:06:31.082Z,29.10
2022-08-10T15:09:19.411Z,29.10
2022-08-10T15:12:13.902Z,29.10
2022-08-10T15:14:42.672Z,29.10
2022-08-10T15:17:13.864Z,29.10
2022-08-10T15:20:02.187Z,29.10
2022-08-10T15:22:39.712Z,29.10
2022-08-10T15:25:18.161Z,29.20
2022-08-10T15:27:54.949Z,29.10
2022-08-10T15:30:30.892Z,29.10
2022-08-10T15:33:21.303Z,29.20
2022-08-10T15:36:26.082Z,29.20
2022-08-10T15:39:00.676Z,29.20
2022-08-10T15:41:58.058Z,29.20
2022-08-10T15:44:40.478Z,29.20
2022-08-10T15:47:15.475Z,29.20
2022-08-10T15:49:51.864Z,29.20
2022-08-10T15:52:38.670Z,29.20
2022-08-10T15:55:41.298Z,29.20
2022-08-10T15:58:07.624Z,29.20
2022-08-10T16:00:40.663Z,29.20
2022-08-10T16:03:17.122Z,29.20
2022-08-10T16:06:01.640Z,29.20
2022-08-10T16:08:56.088Z,29.20
2022-08-10T16:11:37.500Z,29.20
2022-08-10T16:14:17.118Z,29.20
2022-08-10T16:16:49.756Z,29.20
2022-08-10T16:19:24.010Z,29.30
2022-08-10T16:22:00.650Z,29.30
2022-08-10T16:24:33.462Z,29.30
2022-08-10T16:27:06.317Z,29.30
2022-08-10T16:29:56.024Z,29.30
2022-08-10T16:32:26.227Z,29.30
2022-08-10T16:34:56.201Z,29.30
2022-08-10T16:37:29.936Z,29.30
2022-08-10T16:40:20.419Z,29.30
2022-08-10T16:42:49.932Z,29.30
2022-08-10T16:45:24.700Z,29.30
2022-08-10T16:47:54.635Z,29.30
2022-08-10T16:50:26.195Z,29.30
2022-08-10T16:52:57.170Z,29.30
2022-08-10T16:55:48.926Z,29.30
2022-08-10T16:58:16.636Z,29.40
2022-08-10T17:00:46.577Z,29.40
2022-08-10T17:04:04.737Z,29.40
2022-08-10T17:06:10.996Z,29.40
2022-08-10T17:08:48.240Z,29.40
2022-08-10T17:11:19.354Z,29.40
2022-08-10T17:13:47.798Z,29.40
2022-08-10T17:16:19.454Z,29.40
2022-08-10T17:18:48.853Z,29.40
2022-08-10T17:21:21.317Z,29.40
2022-08-10T17:23:52.423Z,29.40
2022-08-10T17:26:35.255Z,29.40
2022-08-10T17:29:53.292Z,29.40
2022-08-10T17:32:01.997Z,29.40
2022-08-10T17:34:32.201Z,29.50
2022-08-10T17:37:04.000Z,29.50
2022-08-10T17:39:37.786Z,29.50
2022-08-10T17:42:09.314Z,29.50
2022-08-10T17:44:40.590Z,29.50
2022-08-10T17:47:11.630Z,29.60
2022-08-10T17:49:40.766Z,29.60
2022-08-10T17:52:09.849Z,29.70
2022-08-10T17:54:41.705Z,29.70
2022-08-10T17:57:13.131Z,29.80
2022-08-10T17:59:42.913Z,29.80
2022-08-10T18:02:15.586Z,29.80
2022-08-10T18:04:49.979Z,29.80
2022-08-10T18:07:21.873Z,29.70
2022-08-10T18:09:51.784Z,29.70
2022-08-10T18:12:32.066Z,29.70
2022-08-10T18:15:05.348Z,29.70
2022-08-10T18:17:40.249Z,29.70
2022-08-10T18:20:11.275Z,29.70
2022-08-10T18:22:45.148Z,29.70
2022-08-10T18:25:19.082Z,29.70
2022-08-10T18:28:03.846Z,29.70
2022-08-10T18:30:36.163Z,29.70
2022-08-10T18:33:11.810Z,29.70
2022-08-10T18:35:40.490Z,29.60
2022-08-10T18:38:09.386Z,29.60
2022-08-10T18:40:40.629Z,29.60
2022-08-10T18:44:06.915Z,29.60
2022-08-10T18:46:00.946Z,29.60
2022-08-10T18:48:47.599Z,29.60
2022-08-10T18:51:19.841Z,29.60
2022-08-10T18:53:54.367Z,29.60
2022-08-10T18:56:33.152Z,29.60
2022-08-10T18:59:18.281Z,29.60
2022-08-10T19:02:02.537Z,29.60
2022-08-10T19:04:51.137Z,29.60
2022-08-10T19:07:41.122Z,29.60
2022-08-10T19:10:15.199Z,29.50
2022-08-10T19:12:50.239Z,29.50
2022-08-10T19:15:24.632Z,29.50
2022-08-10T19:18:06.298Z,29.50
2022-08-10T19:20:44.691Z,29.50
2022-08-10T19:23:31.208Z,29.50
2022-08-10T19:26:37.998Z,29.40
2022-08-10T19:29:05.579Z,29.40
2022-08-10T19:31:44.826Z,29.40
2022-08-10T19:34:22.385Z,29.40
2022-08-10T19:37:00.934Z,29.40
2022-08-10T19:39:51.067Z,29.40
2022-08-10T19:42:31.500Z,29.40
2022-08-10T19:45:07.248Z,29.30
2022-08-10T19:47:39.838Z,29.30
2022-08-10T19:50:11.891Z,29.30
2022-08-10T19:52:50.244Z,29.30
2022-08-10T19:55:26.720Z,29.20
2022-08-10T19:57:59.279Z,29.20
2022-08-10T20:00:37.321Z,29.20
2022-08-10T20:03:14.064Z,29.20
2022-08-10T20:06:13.249Z,29.20
2022-08-10T20:08:45.651Z,29.20
2022-08-10T20:11:44.728Z,29.20
2022-08-10T20:14:21.286Z,29.20
2022-08-10T20:16:50.949Z,29.20
2022-08-10T20:19:53.398Z,29.20
2022-08-10T20:22:28.797Z,29.20
2022-08-10T20:25:03.541Z,29.20
2022-08-10T20:27:57.630Z,29.20
2022-08-10T20:30:28.021Z,29.10
2022-08-10T20:32:58.006Z,29.10
2022-08-10T20:35:27.789Z,29.10
2022-08-10T20:38:04.735Z,29.10
2022-08-10T20:40:43.451Z,29.10
2022-08-10T20:43:21.192Z,29.10
2022-08-10T20:46:08.468Z,29.20
2022-08-10T20:48:43.704Z,29.10
2022-08-10T20:51:16.366Z,29.10
2022-08-10T20:53:51.526Z,29.10
2022-08-10T20:56:33.841Z,29.10
2022-08-10T20:59:10.009Z,29.10
2022-08-10T21:02:06.842Z,29.10
2022-08-10T21:04:49.084Z,29.10
2022-08-10T21:08:00.522Z,29.10
2022-08-10T21:10:38.714Z,29.10
2022-08-10T21:13:41.538Z,29.10
2022-08-10T21:16:21.281Z,29.10
2022-08-10T21:18:58.576Z,29.10
2022-08-10T21:21:43.605Z,29.10
2022-08-10T21:24:20.062Z,29.10
2022-08-10T21:26:56.588Z,29.10
2022-08-10T21:29:41.218Z,29.20
2022-08-10T21:32:19.758Z,29.10
2022-08-10T21:35:08.288Z,29.10
2022-08-10T21:37:44.430Z,29.10
2022-08-10T21:40:35.502Z,29.10
2022-08-10T21:43:44.514Z,29.20
2022-08-10T21:46:55.244Z,29.10
2022-08-10T21:49:57.455Z,29.20
2022-08-10T21:53:04.111Z,29.10
2022-08-10T21:56:01.923Z,29.20
2022-08-10T21:58:52.473Z,29.10
2022-08-10T22:01:47.295Z,29.10
2022-08-10T22:04:38.580Z,29.10
2022-08-10T22:07:28.990Z,29.10
2022-08-10T22:10:25.600Z,29.10
2022-08-10T22:13:12.858Z,29.20
2022-08-10T22:16:10.534Z,29.10
2022-08-10T22:19:03.532Z,29.10
2022-08-10T22:22:01.091Z,29.10
2022-08-10T22:25:16.559Z,29.10
2022-08-10T22:28:07.441Z,29.10
2022-08-10T22:34:24.650Z,29.10
2022-08-10T22:37:28.417Z,29.10
2022-08-10T22:40:20.801Z,29.10
2022-08-10T22:43:10.631Z,29.10
2022-08-10T22:46:03.489Z,29.10
2022-08-10T22:48:51.660Z,29.10
2022-08-10T22:51:24.049Z,29.10
2022-08-10T22:54:30.996Z,29.10
2022-08-10T22:57:18.334Z,29.10
2022-08-10T22:59:46.485Z,29.10
2022-08-10T23:02:27.473Z,29.10
2022-08-10T23:04:59.852Z,29.10
2022-08-10T23:07:31.664Z,29.10
2022-08-10T23:10:03.688Z,29.10
2022-08-10T23:12:36.706Z,29.10
2022-08-10T23:15:25.118Z,29.10
2022-08-10T23:18:14.089Z,29.10
2022-08-10T23:20:43.810Z,29.10
2022-08-10T23:23:24.043Z,29.10
2022-08-10T23:25:57.439Z,29.10
2022-08-10T23:28:39.364Z,29.10
2022-08-10T23:31:17.465Z,29.10
2022-08-10T23:34:06.405Z,29.10
2022-08-10T23:36:37.884Z,29.10
2022-08-10T23:39:26.554Z,29.10
2022-08-10T23:42:04.700Z,29.10
2022-08-10T23:44:43.544Z,29.10
2022-08-10T23:47:14.661Z,29.10
2022-08-10T23:49:45.044Z,29.10
2022-08-10T23:52:16.282Z,29.10
2022-08-10T23:54:52.211Z,29.10
2022-08-10T23:57:22.493Z,29.10
2022-08-10T23:59:52.558Z,29.10
